createdAt,value
2019-02-23T00:00:43.847Z,79.48
2019-02-23T00:01:43.840Z,80.44
2019-02-23T00:02:43.828Z,80.65
2019-02-23T00:03:43.833Z,81.21
2019-02-23T00:04:43.829Z,81.93
2019-02-23T00:05:43.798Z,82.17
2019-02-23T00:06:43.853Z,83.34
2019-02-23T00:07:43.774Z,81.42
2019-02-23T00:08:43.761Z,81.67
2019-02-23T00:09:43.812Z,85.22
2019-02-23T00:10:43.784Z,85.94
2019-02-23T00:11:43.731Z,85.80
2019-02-23T00:12:43.726Z,85.80
2019-02-23T00:13:43.723Z,84.97
2019-02-23T00:14:43.721Z,85.49
2019-02-23T00:15:43.740Z,85.39
2019-02-23T00:16:43.713Z,85.91
2019-02-23T00:17:43.664Z,85.63
2019-02-23T00:18:43.665Z,85.68
2019-02-23T00:19:43.665Z,87.33
2019-02-23T00:20:43.670Z,86.81
2019-02-23T00:21:43.626Z,87.39
2019-02-23T00:22:43.626Z,83.50
2019-02-23T00:23:43.601Z,85.40
2019-02-23T00:24:43.622Z,86.07
2019-02-23T00:25:43.598Z,87.72
2019-02-23T00:26:43.593Z,88.51
2019-02-23T00:27:43.603Z,89.34
2019-02-23T00:28:43.556Z,88.71
2019-02-23T00:29:43.590Z,88.61
2019-02-23T00:30:43.576Z,88.82
2019-02-23T00:31:43.534Z,88.78
2019-02-23T00:32:43.508Z,87.95
2019-02-23T00:33:43.551Z,86.81
2019-02-23T00:34:43.514Z,87.64
2019-02-23T00:35:43.490Z,88.16
2019-02-23T00:36:43.491Z,87.29
2019-02-23T00:37:43.501Z,87.39
2019-02-23T00:38:43.486Z,86.50
2019-02-23T00:39:43.433Z,84.53
2019-02-23T00:40:43.444Z,85.82
2019-02-23T00:41:43.472Z,87.37
2019-02-23T00:42:43.407Z,87.10
2019-02-23T00:43:43.401Z,87.97
2019-02-23T00:44:43.394Z,87.18
2019-02-23T00:45:43.397Z,88.36
2019-02-23T00:46:43.366Z,89.61
2019-02-23T00:47:43.356Z,91.68
2019-02-23T00:48:43.363Z,91.89
2019-02-23T00:49:43.348Z,92.51
2019-02-23T00:50:43.339Z,91.51
2019-02-23T00:51:43.321Z,87.64
2019-02-23T00:52:43.298Z,87.74
2019-02-23T00:53:43.325Z,85.99
2019-02-23T00:54:43.284Z,85.16
2019-02-23T00:55:43.305Z,85.26
2019-02-23T00:56:43.267Z,87.12
2019-02-23T00:57:43.250Z,85.94
2019-02-23T00:58:43.237Z,85.28
2019-02-23T00:59:43.247Z,83.98
2019-02-23T01:00:43.228Z,85.24
2019-02-23T01:01:43.226Z,83.00
2019-02-23T01:02:43.222Z,81.68
2019-02-23T01:03:43.337Z,79.79
2019-02-23T01:04:43.196Z,79.24
2019-02-23T01:05:43.188Z,78.07
2019-02-23T01:06:43.186Z,77.97
2019-02-23T01:07:43.157Z,77.31
2019-02-23T01:08:43.152Z,76.70
2019-02-23T01:09:43.151Z,76.18
2019-02-23T01:10:43.133Z,76.35
2019-02-23T01:11:43.129Z,75.52
2019-02-23T01:12:43.093Z,75.73
2019-02-23T01:13:43.083Z,76.14
2019-02-23T01:14:43.084Z,75.73
2019-02-23T01:15:43.091Z,75.63
2019-02-23T01:16:43.065Z,75.87
2019-02-23T01:17:43.054Z,75.94
2019-02-23T01:18:43.036Z,75.77
2019-02-23T01:19:47.897Z,75.49
2019-02-23T01:20:44.029Z,75.39
2019-02-23T01:21:42.997Z,75.39
2019-02-23T01:22:42.979Z,74.98
2019-02-23T01:23:43.002Z,73.54
2019-02-23T01:24:42.965Z,74.67
2019-02-23T01:25:42.949Z,75.12
2019-02-23T01:26:42.985Z,75.52
2019-02-23T01:27:42.942Z,75.52
2019-02-23T01:28:42.957Z,75.52
2019-02-23T01:29:42.913Z,76.14
2019-02-23T01:30:42.921Z,76.04
2019-02-23T01:31:42.906Z,76.07
2019-02-23T01:32:42.912Z,75.77
2019-02-23T01:33:42.877Z,76.11
2019-02-23T01:34:42.889Z,76.93
2019-02-23T01:35:42.877Z,76.73
2019-02-23T01:36:42.911Z,77.04
2019-02-23T01:37:42.827Z,76.93
2019-02-23T01:38:42.816Z,76.97
2019-02-23T01:39:42.855Z,77.73
2019-02-23T01:40:42.821Z,77.66
2019-02-23T01:41:42.822Z,79.35
2019-02-23T01:42:42.796Z,80.11
2019-02-23T01:43:42.804Z,80.97
2019-02-23T01:44:42.765Z,82.66
2019-02-23T01:45:42.868Z,83.49
2019-02-23T01:46:42.803Z,80.80
2019-02-23T01:47:42.723Z,81.35
2019-02-23T01:48:42.719Z,83.56
2019-02-23T01:49:42.710Z,84.12
2019-02-23T01:50:42.701Z,85.92
2019-02-23T01:51:42.709Z,86.54
2019-02-23T01:52:42.671Z,84.58
2019-02-23T01:53:42.709Z,86.54
2019-02-23T01:54:42.674Z,86.65
2019-02-23T01:55:42.683Z,85.88
2019-02-23T01:56:42.646Z,85.57
2019-02-23T01:57:42.629Z,85.36
2019-02-23T01:58:42.599Z,85.36
2019-02-23T01:59:42.606Z,85.47
2019-02-23T02:00:42.591Z,85.26
2019-02-23T02:01:42.608Z,83.23
2019-02-23T02:02:42.645Z,83.68
2019-02-23T02:03:42.559Z,84.44
2019-02-23T02:04:42.550Z,86.49
2019-02-23T02:05:42.546Z,88.88
2019-02-23T02:06:42.550Z,89.61
2019-02-23T02:07:42.554Z,90.33
2019-02-23T02:08:42.540Z,90.12
2019-02-23T02:09:42.506Z,90.12
2019-02-23T02:10:42.491Z,89.81
2019-02-23T02:11:42.500Z,90.33
2019-02-23T02:12:42.467Z,89.81
2019-02-23T02:13:42.471Z,89.77
2019-02-23T02:14:42.466Z,89.21
2019-02-23T02:15:42.459Z,88.90
2019-02-23T02:16:42.469Z,88.01
2019-02-23T02:17:42.411Z,88.36
2019-02-23T02:18:42.404Z,88.57
2019-02-23T02:19:42.392Z,88.67
2019-02-23T02:20:42.373Z,89.23
2019-02-23T02:21:42.443Z,90.06
2019-02-23T02:22:42.353Z,91.45
2019-02-23T02:23:42.366Z,91.76
2019-02-23T02:24:42.345Z,92.74
2019-02-23T02:25:42.315Z,92.74
2019-02-23T02:26:42.332Z,92.97
2019-02-23T02:27:42.305Z,92.61
2019-02-23T02:28:42.297Z,91.06
2019-02-23T02:29:42.283Z,90.60
2019-02-23T02:30:42.280Z,89.46
2019-02-23T02:31:42.264Z,88.90
2019-02-23T02:32:42.264Z,87.76
2019-02-23T02:33:42.264Z,86.97
2019-02-23T02:34:42.253Z,86.70
2019-02-23T02:35:42.214Z,88.67
2019-02-23T02:36:42.204Z,89.86
2019-02-23T02:37:42.205Z,90.17
2019-02-23T02:38:42.184Z,91.31
2019-02-23T02:39:42.185Z,91.83
2019-02-23T02:40:42.176Z,91.20
2019-02-23T02:41:42.157Z,91.55
2019-02-23T02:42:42.160Z,91.76
2019-02-23T02:43:42.131Z,91.14
2019-02-23T02:44:42.168Z,91.03
2019-02-23T02:45:42.120Z,90.97
2019-02-23T02:46:42.135Z,91.60
2019-02-23T02:47:42.100Z,90.50
2019-02-23T02:48:42.111Z,90.81
2019-02-23T02:49:42.067Z,92.10
2019-02-23T02:50:42.076Z,91.99
2019-02-23T02:51:42.076Z,91.93
2019-02-23T02:52:42.083Z,93.12
2019-02-23T02:53:42.056Z,92.91
2019-02-23T02:54:42.021Z,92.70
2019-02-23T02:55:42.005Z,93.68
2019-02-23T02:56:41.996Z,95.20
2019-02-23T02:57:42.019Z,96.24
2019-02-23T02:58:41.982Z,95.89
2019-02-23T02:59:41.962Z,95.09
2019-02-23T03:00:42.018Z,94.53
2019-02-23T03:01:41.947Z,93.43
2019-02-23T03:02:41.944Z,93.37
2019-02-23T03:03:41.958Z,93.10
2019-02-23T03:04:41.917Z,92.52
2019-02-23T03:05:41.938Z,93.08
2019-02-23T03:06:41.890Z,93.71
2019-02-23T03:07:41.927Z,93.65
2019-02-23T03:08:41.882Z,95.58
2019-02-23T03:09:41.876Z,96.04
2019-02-23T03:10:41.884Z,96.25
2019-02-23T03:11:41.870Z,97.61
2019-02-23T03:12:41.851Z,97.14
2019-02-23T03:13:41.811Z,97.56
2019-02-23T03:14:41.839Z,97.09
2019-02-23T03:15:41.792Z,96.09
2019-02-23T03:16:41.779Z,95.19
2019-02-23T03:17:41.780Z,95.50
2019-02-23T03:18:41.756Z,96.97
2019-02-23T03:19:41.761Z,97.59
2019-02-23T03:20:41.746Z,98.38
2019-02-23T03:21:41.735Z,98.69
2019-02-23T03:22:41.742Z,98.69
2019-02-23T03:23:41.713Z,98.43
2019-02-23T03:24:41.740Z,98.43
2019-02-23T03:25:41.688Z,98.58
2019-02-23T03:26:41.679Z,98.43
2019-02-23T03:27:41.734Z,99.68
2019-02-23T03:28:41.658Z,99.74
2019-02-23T03:29:41.798Z,99.53
2019-02-23T03:30:41.656Z,99.26
2019-02-23T03:31:41.641Z,99.05
2019-02-23T03:32:41.640Z,98.74
2019-02-23T03:33:41.633Z,98.47
2019-02-23T03:34:41.603Z,98.74
2019-02-23T03:35:41.606Z,98.79
2019-02-23T03:36:41.575Z,99.41
2019-02-23T03:37:41.574Z,99.52
2019-02-23T03:38:41.552Z,99.62
2019-02-23T03:39:41.579Z,99.93
2019-02-23T03:40:41.560Z,98.99
2019-02-23T03:41:41.539Z,99.20
2019-02-23T03:42:41.563Z,99.25
2019-02-23T03:43:41.541Z,99.25
2019-02-23T03:44:41.499Z,99.66
2019-02-23T03:45:41.484Z,99.29
2019-02-23T03:46:41.487Z,99.99
2019-02-23T03:47:41.460Z,99.92
2019-02-23T03:48:41.517Z,99.61
2019-02-23T03:49:41.486Z,99.71
2019-02-23T03:50:49.025Z,99.51
2019-02-23T03:51:42.446Z,99.99
2019-02-23T03:52:41.423Z,99.99
2019-02-23T03:53:41.445Z,99.99
2019-02-23T03:54:41.391Z,99.99
2019-02-23T03:55:41.379Z,99.83
2019-02-23T03:56:41.395Z,99.99
2019-02-23T03:57:41.369Z,99.99
2019-02-23T03:58:41.376Z,99.99
2019-02-23T03:59:41.408Z,99.92
2019-02-23T04:00:41.332Z,99.76
2019-02-23T04:01:41.334Z,99.86
2019-02-23T04:02:41.356Z,99.99
2019-02-23T04:03:41.317Z,99.99
2019-02-23T04:04:41.311Z,99.99
2019-02-23T04:05:41.295Z,99.99
2019-02-23T04:06:41.265Z,99.99
2019-02-23T04:07:41.266Z,99.99
2019-02-23T04:08:41.263Z,99.99
2019-02-23T04:09:41.242Z,99.99
2019-02-23T04:10:41.253Z,99.99
2019-02-23T04:11:41.220Z,99.99
2019-02-23T04:12:41.333Z,99.99
2019-02-23T04:13:41.194Z,99.99
2019-02-23T04:14:41.189Z,99.99
2019-02-23T04:15:41.169Z,99.99
2019-02-23T04:16:41.160Z,99.99
2019-02-23T04:17:41.160Z,99.99
2019-02-23T04:18:41.159Z,99.99
2019-02-23T04:19:41.146Z,99.99
2019-02-23T04:20:41.131Z,99.99
2019-02-23T04:21:41.131Z,99.59
2019-02-23T04:22:41.106Z,99.47
2019-02-23T04:23:41.115Z,99.79
2019-02-23T04:24:41.082Z,99.99
2019-02-23T04:25:41.095Z,99.79
2019-02-23T04:26:41.076Z,99.68
2019-02-23T04:27:41.050Z,99.99
2019-02-23T04:28:41.058Z,99.63
2019-02-23T04:29:41.074Z,99.68
2019-02-23T04:30:41.022Z,99.79
2019-02-23T04:31:41.001Z,99.79
2019-02-23T04:32:41.016Z,99.99
2019-02-23T04:33:40.990Z,99.90
2019-02-23T04:34:40.978Z,99.99
2019-02-23T04:35:40.960Z,99.22
2019-02-23T04:36:40.963Z,99.37
2019-02-23T04:37:40.995Z,98.68
2019-02-23T04:38:40.939Z,98.43
2019-02-23T04:39:40.938Z,98.37
2019-02-23T04:40:40.913Z,98.89
2019-02-23T04:41:40.894Z,99.31
2019-02-23T04:42:40.902Z,99.99
2019-02-23T04:43:44.005Z,99.99
2019-02-23T04:44:40.873Z,99.99
2019-02-23T04:45:40.858Z,99.99
2019-02-23T04:46:40.864Z,99.54
2019-02-23T04:47:40.841Z,99.85
2019-02-23T04:48:40.849Z,99.23
2019-02-23T04:49:40.975Z,99.44
2019-02-23T04:50:40.808Z,99.54
2019-02-23T04:51:40.804Z,99.44
2019-02-23T04:52:40.797Z,99.60
2019-02-23T04:53:40.772Z,99.27
2019-02-23T04:54:40.810Z,98.34
2019-02-23T04:55:40.770Z,98.96
2019-02-23T04:56:40.738Z,99.48
2019-02-23T04:57:40.753Z,99.44
2019-02-23T04:58:40.743Z,99.33
2019-02-23T04:59:40.748Z,98.71
2019-02-23T05:00:40.768Z,99.17
2019-02-23T05:01:40.693Z,98.96
2019-02-23T05:02:40.680Z,98.44
2019-02-23T05:03:40.665Z,98.28
2019-02-23T05:04:40.760Z,98.43
2019-02-23T05:05:40.645Z,98.01
2019-02-23T05:06:40.644Z,97.28
2019-02-23T05:07:40.656Z,97.32
2019-02-23T05:08:40.638Z,97.68
2019-02-23T05:09:40.653Z,99.26
2019-02-23T05:10:40.604Z,99.74
2019-02-23T05:11:40.616Z,99.99
2019-02-23T05:12:40.574Z,99.53
2019-02-23T05:13:40.572Z,99.99
2019-02-23T05:14:40.572Z,99.99
2019-02-23T05:15:40.559Z,99.48
2019-02-23T05:16:40.544Z,99.99
2019-02-23T05:17:40.562Z,99.99
2019-02-23T05:18:40.560Z,99.99
2019-02-23T05:19:40.523Z,99.99
2019-02-23T05:20:40.551Z,99.99
2019-02-23T05:21:40.484Z,99.99
2019-02-23T05:22:40.497Z,99.99
2019-02-23T05:23:40.478Z,99.99
2019-02-23T05:24:40.501Z,99.99
2019-02-23T05:25:40.587Z,99.99
2019-02-23T05:26:40.432Z,99.99
2019-02-23T05:27:40.428Z,99.99
2019-02-23T05:28:40.424Z,99.99
2019-02-23T05:29:40.427Z,99.99
2019-02-23T05:30:40.388Z,99.73
2019-02-23T05:31:40.371Z,99.99
2019-02-23T05:32:40.377Z,99.56
2019-02-23T05:33:40.368Z,99.51
2019-02-23T05:34:40.358Z,99.40
2019-02-23T05:35:40.401Z,99.55
2019-02-23T05:36:40.321Z,99.55
2019-02-23T05:37:40.331Z,99.13
2019-02-23T05:38:40.305Z,99.99
2019-02-23T05:39:40.333Z,99.99
2019-02-23T05:40:40.346Z,99.99
2019-02-23T05:41:40.284Z,99.99
2019-02-23T05:42:40.271Z,99.99
2019-02-23T05:43:40.261Z,99.99
2019-02-23T05:44:40.262Z,99.99
2019-02-23T05:45:40.259Z,99.99
2019-02-23T05:46:40.261Z,99.99
2019-02-23T05:47:40.253Z,99.99
2019-02-23T05:48:40.196Z,99.99
2019-02-23T05:49:40.209Z,99.99
2019-02-23T05:50:40.202Z,99.99
2019-02-23T05:51:40.182Z,99.99
2019-02-23T05:52:40.162Z,99.99
2019-02-23T05:53:40.187Z,99.99
2019-02-23T05:54:40.196Z,99.99
2019-02-23T05:55:40.134Z,99.99
2019-02-23T05:56:40.145Z,99.99
2019-02-23T05:57:40.158Z,99.99
2019-02-23T05:58:40.136Z,99.99
2019-02-23T05:59:40.094Z,99.99
2019-02-23T06:00:40.144Z,99.99
2019-02-23T06:01:40.095Z,99.98
2019-02-23T06:02:40.078Z,99.98
2019-02-23T06:03:40.056Z,99.98
2019-02-23T06:04:40.048Z,99.99
2019-02-23T06:05:40.068Z,99.92
2019-02-23T06:06:40.036Z,99.99
2019-02-23T06:07:40.055Z,99.99
2019-02-23T06:08:40.021Z,99.59
2019-02-23T06:09:39.990Z,99.80
2019-02-23T06:10:39.985Z,99.91
2019-02-23T06:11:39.962Z,99.99
2019-02-23T06:12:39.963Z,99.99
2019-02-23T06:13:39.943Z,99.99
2019-02-23T06:14:39.937Z,99.99
2019-02-23T06:15:39.996Z,99.99
2019-02-23T06:16:39.917Z,99.99
2019-02-23T06:17:39.925Z,99.99
2019-02-23T06:18:39.926Z,99.99
2019-02-23T06:19:39.903Z,99.99
2019-02-23T06:20:39.904Z,99.79
2019-02-23T06:21:52.731Z,99.99
2019-02-23T06:22:40.973Z,99.99
2019-02-23T06:23:39.871Z,99.99
2019-02-23T06:24:39.841Z,99.99
2019-02-23T06:25:39.861Z,99.99
2019-02-23T06:26:39.803Z,99.99
2019-02-23T06:27:39.838Z,99.99
2019-02-23T06:28:39.786Z,99.99
2019-02-23T06:29:39.826Z,99.99
2019-02-23T06:30:39.806Z,99.99
2019-02-23T06:31:39.773Z,99.99
2019-02-23T06:32:39.776Z,99.99
2019-02-23T06:33:39.774Z,99.99
2019-02-23T06:34:39.746Z,99.99
2019-02-23T06:35:39.774Z,99.99
2019-02-23T06:36:39.714Z,99.99
2019-02-23T06:37:39.687Z,99.99
2019-02-23T06:38:39.696Z,99.99
2019-02-23T06:39:39.674Z,99.99
2019-02-23T06:40:39.677Z,99.99
2019-02-23T06:41:39.697Z,99.99
2019-02-23T06:42:39.661Z,99.99
2019-02-23T06:43:39.715Z,99.99
2019-02-23T06:44:39.654Z,99.99
2019-02-23T06:45:39.688Z,99.99
2019-02-23T06:46:39.644Z,99.99
2019-02-23T06:47:39.615Z,99.99
2019-02-23T06:48:39.577Z,99.99
2019-02-23T06:49:39.645Z,99.99
2019-02-23T06:50:39.658Z,99.99
2019-02-23T06:51:39.563Z,99.99
2019-02-23T06:52:39.539Z,99.99
2019-02-23T06:53:39.546Z,99.99
2019-02-23T06:54:39.523Z,99.99
2019-02-23T06:55:39.540Z,99.63
2019-02-23T06:56:39.636Z,99.74
2019-02-23T06:57:39.495Z,99.22
2019-02-23T06:58:39.470Z,99.38
2019-02-23T06:59:39.460Z,98.49
2019-02-23T07:00:39.473Z,97.34
2019-02-23T07:01:39.463Z,97.55
2019-02-23T07:02:39.477Z,97.65
2019-02-23T07:03:39.418Z,97.13
2019-02-23T07:04:39.423Z,96.71
2019-02-23T07:05:39.434Z,96.82
2019-02-23T07:06:39.401Z,96.67
2019-02-23T07:07:39.417Z,97.30
2019-02-23T07:08:39.420Z,95.73
2019-02-23T07:09:39.423Z,97.20
2019-02-23T07:10:39.366Z,96.95
2019-02-23T07:11:39.385Z,96.66
2019-02-23T07:12:39.333Z,94.72
2019-02-23T07:13:39.355Z,93.64
2019-02-23T07:14:39.308Z,92.97
2019-02-23T07:15:39.600Z,92.61
2019-02-23T07:16:39.341Z,92.74
2019-02-23T07:17:39.304Z,92.28
2019-02-23T07:18:39.266Z,89.86
2019-02-23T07:19:39.259Z,89.40
2019-02-23T07:20:44.114Z,89.94
2019-02-23T07:21:40.342Z,88.90
2019-02-23T07:22:39.350Z,90.06
2019-02-23T07:23:39.208Z,87.99
2019-02-23T07:24:39.266Z,87.08
2019-02-23T07:25:39.226Z,87.15
2019-02-23T07:26:39.218Z,85.10
2019-02-23T07:27:39.328Z,82.62
2019-02-23T07:28:39.158Z,80.73
2019-02-23T07:29:39.148Z,80.35
2019-02-23T07:30:39.215Z,80.48
2019-02-23T07:31:39.135Z,79.76
2019-02-23T07:32:39.114Z,79.66
2019-02-23T07:33:39.130Z,79.66
2019-02-23T07:34:39.123Z,79.31
2019-02-23T07:35:39.139Z,78.59
2019-02-23T07:36:39.082Z,77.62
2019-02-23T07:37:39.070Z,78.31
2019-02-23T07:38:39.096Z,78.55
2019-02-23T07:39:39.102Z,76.83
2019-02-23T07:40:39.061Z,74.26
2019-02-23T07:41:39.065Z,74.29
2019-02-23T07:42:39.054Z,74.08
2019-02-23T07:43:39.014Z,74.08
2019-02-23T07:44:39.097Z,73.81
2019-02-23T07:45:39.025Z,72.27
2019-02-23T07:46:38.997Z,72.99
2019-02-23T07:47:38.976Z,74.12
2019-02-23T07:48:38.978Z,72.65
2019-02-23T07:49:38.935Z,71.93
2019-02-23T07:50:38.950Z,72.27
2019-02-23T07:51:38.967Z,72.81
2019-02-23T07:52:38.908Z,72.75
2019-02-23T07:53:38.920Z,73.26
2019-02-23T07:54:38.894Z,74.19
2019-02-23T07:55:38.915Z,73.13
2019-02-23T07:56:38.883Z,72.99
2019-02-23T07:57:38.931Z,71.96
2019-02-23T07:58:38.948Z,71.86
2019-02-23T07:59:38.835Z,72.27
2019-02-23T08:00:38.850Z,71.75
2019-02-23T08:01:38.841Z,72.17
2019-02-23T08:02:38.879Z,71.62
2019-02-23T08:03:38.846Z,71.83
2019-02-23T08:04:38.818Z,71.69
2019-02-23T08:05:38.859Z,72.51
2019-02-23T08:06:38.798Z,72.47
2019-02-23T08:07:39.905Z,72.38
2019-02-23T08:08:38.764Z,72.44
2019-02-23T08:09:38.743Z,71.11
2019-02-23T08:10:38.745Z,71.00
2019-02-23T08:11:38.761Z,71.62
2019-02-23T08:12:38.733Z,71.28
2019-02-23T08:13:40.624Z,71.14
2019-02-23T08:14:38.685Z,69.98
2019-02-23T08:15:38.660Z,69.57
2019-02-23T08:16:38.785Z,69.10
2019-02-23T08:17:38.640Z,68.68
2019-02-23T08:18:38.711Z,68.65
2019-02-23T08:19:38.694Z,70.18
2019-02-23T08:20:38.668Z,70.39
2019-02-23T08:21:38.649Z,69.61
2019-02-23T08:22:38.653Z,68.35
2019-02-23T08:23:38.629Z,67.43
2019-02-23T08:24:38.628Z,66.81
2019-02-23T08:25:38.611Z,67.08
2019-02-23T08:26:38.607Z,65.59
2019-02-23T08:27:38.632Z,65.77
2019-02-23T08:28:38.523Z,63.18
2019-02-23T08:29:38.547Z,63.82
2019-02-23T08:30:38.703Z,64.92
2019-02-23T08:31:38.528Z,63.15
2019-02-23T08:32:38.495Z,62.77
2019-02-23T08:33:38.539Z,64.90
2019-02-23T08:34:38.518Z,64.95
2019-02-23T08:35:38.489Z,66.93
2019-02-23T08:36:38.449Z,63.35
2019-02-23T08:37:38.492Z,63.89
2019-02-23T08:38:38.505Z,64.77
2019-02-23T08:39:38.466Z,66.44
2019-02-23T08:40:38.396Z,65.24
2019-02-23T08:41:38.483Z,68.11
2019-02-23T08:42:38.421Z,66.88
2019-02-23T08:43:38.439Z,66.78
2019-02-23T08:44:38.352Z,68.25
2019-02-23T08:45:38.352Z,65.53
2019-02-23T08:46:38.409Z,63.86
2019-02-23T08:47:38.341Z,64.51
2019-02-23T08:48:38.359Z,64.99
2019-02-23T08:49:38.310Z,64.04
2019-02-23T08:50:38.381Z,64.04
2019-02-23T08:51:38.308Z,63.59
2019-02-23T08:52:48.622Z,64.51
2019-02-23T08:53:39.269Z,64.58
2019-02-23T08:54:38.265Z,63.73
2019-02-23T08:55:38.268Z,62.43
2019-02-23T08:56:38.233Z,62.92
2019-02-23T08:57:38.227Z,63.98
2019-02-23T08:58:38.281Z,60.94
2019-02-23T08:59:38.199Z,62.30
2019-02-23T09:00:38.186Z,63.98
2019-02-23T09:01:38.198Z,62.27
2019-02-23T09:02:38.165Z,63.49
2019-02-23T09:03:38.158Z,64.05
2019-02-23T09:04:38.136Z,62.30
2019-02-23T09:05:38.128Z,60.38
2019-02-23T09:06:38.174Z,58.45
2019-02-23T09:07:38.141Z,58.78
2019-02-23T09:08:38.151Z,57.82
2019-02-23T09:09:38.136Z,61.93
2019-02-23T09:10:38.080Z,60.50
2019-02-23T09:11:38.129Z,60.53
2019-02-23T09:12:38.059Z,62.49
2019-02-23T09:13:38.125Z,60.58
2019-02-23T09:14:38.034Z,62.36
2019-02-23T09:15:38.026Z,59.66
2019-02-23T09:16:38.036Z,58.83
2019-02-23T09:17:38.036Z,56.95
2019-02-23T09:18:38.032Z,56.67
2019-02-23T09:19:38.044Z,57.71
2019-02-23T09:20:38.067Z,58.38
2019-02-23T09:21:38.014Z,59.91
2019-02-23T09:22:38.017Z,60.41
2019-02-23T09:23:37.940Z,58.07
2019-02-23T09:24:37.924Z,59.91
2019-02-23T09:25:37.995Z,59.57
2019-02-23T09:26:37.935Z,58.88
2019-02-23T09:27:37.895Z,56.87
2019-02-23T09:28:37.940Z,56.16
2019-02-23T09:29:37.883Z,57.97
2019-02-23T09:30:37.861Z,56.52
2019-02-23T09:31:37.890Z,56.31
2019-02-23T09:32:37.892Z,56.21
2019-02-23T09:33:37.858Z,57.84
2019-02-23T09:34:37.811Z,57.29
2019-02-23T09:35:37.830Z,57.59
2019-02-23T09:36:37.861Z,57.97
2019-02-23T09:37:37.802Z,56.98
2019-02-23T09:38:37.802Z,58.71
2019-02-23T09:39:37.860Z,57.43
2019-02-23T09:40:37.793Z,56.55
2019-02-23T09:41:37.786Z,58.04
2019-02-23T09:42:37.754Z,57.51
2019-02-23T09:43:37.865Z,56.31
2019-02-23T09:44:37.708Z,54.66
2019-02-23T09:45:37.727Z,54.64
2019-02-23T09:46:37.712Z,53.17
2019-02-23T09:47:37.687Z,52.92
2019-02-23T09:48:37.726Z,53.72
2019-02-23T09:49:37.656Z,52.20
2019-02-23T09:50:37.649Z,51.12
2019-02-23T09:51:37.670Z,53.04
2019-02-23T09:52:37.646Z,52.48
2019-02-23T09:53:37.652Z,52.91
2019-02-23T09:54:37.593Z,54.11
2019-02-23T09:55:37.594Z,54.57
2019-02-23T09:56:37.658Z,54.33
2019-02-23T09:57:37.565Z,53.67
2019-02-23T09:58:37.651Z,54.99
2019-02-23T09:59:40.059Z,55.60
2019-02-23T10:00:37.588Z,54.82
2019-02-23T10:01:37.574Z,55.45
2019-02-23T10:02:37.508Z,55.20
2019-02-23T10:03:37.565Z,53.27
2019-02-23T10:04:37.486Z,52.23
2019-02-23T10:05:38.309Z,51.93
2019-02-23T10:06:37.523Z,52.00
2019-02-23T10:07:37.456Z,51.29
2019-02-23T10:08:37.478Z,51.62
2019-02-23T10:09:37.436Z,51.24
2019-02-23T10:10:37.512Z,52.44
2019-02-23T10:11:37.428Z,52.61
2019-02-23T10:12:37.469Z,49.65
2019-02-23T10:13:37.388Z,48.43
2019-02-23T10:14:37.402Z,49.16
2019-02-23T10:15:37.406Z,49.47
2019-02-23T10:16:37.429Z,52.56
2019-02-23T10:17:37.427Z,53.14
2019-02-23T10:18:37.345Z,50.89
2019-02-23T10:19:37.331Z,47.17
2019-02-23T10:20:37.340Z,50.46
2019-02-23T10:21:37.324Z,49.38
2019-02-23T10:22:39.527Z,50.74
2019-02-23T10:23:37.343Z,51.14
2019-02-23T10:24:37.298Z,50.82
2019-02-23T10:25:37.258Z,52.19
2019-02-23T10:26:37.289Z,51.17
2019-02-23T10:27:37.237Z,50.59
2019-02-23T10:28:37.223Z,51.70
2019-02-23T10:29:37.213Z,50.69
2019-02-23T10:30:37.392Z,51.25
2019-02-23T10:31:37.263Z,52.23
2019-02-23T10:32:37.201Z,53.14
2019-02-23T10:33:46.923Z,53.32
2019-02-23T10:34:38.191Z,52.39
2019-02-23T10:35:37.217Z,53.65
2019-02-23T10:36:37.164Z,49.50
2019-02-23T10:37:37.505Z,49.50
2019-02-23T10:38:37.160Z,50.82
2019-02-23T10:39:37.110Z,49.07
2019-02-23T10:40:37.138Z,50.18
2019-02-23T10:41:37.121Z,49.50
2019-02-23T10:42:37.119Z,48.46
2019-02-23T10:43:37.205Z,48.41
2019-02-23T10:44:37.103Z,47.34
2019-02-23T10:45:37.116Z,52.76
2019-02-23T10:46:37.080Z,48.16
2019-02-23T10:47:37.053Z,48.02
2019-02-23T10:48:37.094Z,46.58
2019-02-23T10:49:37.026Z,46.17
2019-02-23T10:50:37.041Z,46.88
2019-02-23T10:51:36.993Z,44.76
2019-02-23T10:52:37.041Z,43.63
2019-02-23T10:53:37.093Z,45.47
2019-02-23T10:54:36.973Z,44.72
2019-02-23T10:55:36.935Z,44.70
2019-02-23T10:56:36.927Z,45.39
2019-02-23T10:57:36.927Z,43.51
2019-02-23T10:58:37.224Z,44.62
2019-02-23T10:59:36.935Z,44.62
2019-02-23T11:00:37.216Z,42.90
2019-02-23T11:01:36.904Z,45.31
2019-02-23T11:02:37.024Z,44.96
2019-02-23T11:03:36.848Z,43.04
2019-02-23T11:04:36.924Z,45.57
2019-02-23T11:05:37.007Z,43.69
2019-02-23T11:06:38.512Z,41.50
2019-02-23T11:07:36.913Z,44.20
2019-02-23T11:08:36.794Z,43.81
2019-02-23T11:09:36.835Z,43.87
2019-02-23T11:10:36.774Z,43.04
2019-02-23T11:11:36.814Z,42.80
2019-02-23T11:12:36.786Z,44.62
2019-02-23T11:13:36.803Z,41.93
2019-02-23T11:14:41.304Z,41.64
2019-02-23T11:15:37.680Z,42.13
2019-02-23T11:16:37.087Z,42.78
2019-02-23T11:17:36.909Z,40.17
2019-02-23T11:18:36.733Z,41.28
2019-02-23T11:19:36.729Z,41.46
2019-02-23T11:20:36.810Z,40.23
2019-02-23T11:21:36.657Z,39.22
2019-02-23T11:22:36.814Z,39.47
2019-02-23T11:23:43.843Z,37.57
2019-02-23T11:24:37.631Z,40.98
2019-02-23T11:25:37.097Z,36.76
2019-02-23T11:26:36.670Z,38.71
2019-02-23T11:27:36.835Z,38.01
2019-02-23T11:28:36.782Z,37.81
2019-02-23T11:29:36.580Z,37.81
2019-02-23T11:30:36.560Z,38.73
2019-02-23T11:31:36.686Z,38.59
2019-02-23T11:32:36.555Z,38.66
2019-02-23T11:33:36.527Z,38.98
2019-02-23T11:34:36.517Z,40.01
2019-02-23T11:35:36.647Z,38.29
2019-02-23T11:36:36.718Z,37.59
2019-02-23T11:37:37.056Z,37.99
2019-02-23T11:38:36.620Z,37.50
2019-02-23T11:39:36.557Z,38.61
2019-02-23T11:40:36.653Z,42.03
2019-02-23T11:41:36.442Z,41.93
2019-02-23T11:42:36.941Z,42.92
2019-02-23T11:43:36.445Z,41.67
2019-02-23T11:44:36.623Z,41.20
2019-02-23T11:45:36.607Z,42.43
2019-02-23T11:46:36.569Z,42.70
2019-02-23T11:47:36.395Z,40.68
2019-02-23T11:48:36.389Z,42.18
2019-02-23T11:49:36.379Z,41.22
2019-02-23T11:50:36.519Z,40.72
2019-02-23T11:51:36.490Z,39.25
2019-02-23T11:52:36.653Z,39.43
2019-02-23T11:53:36.471Z,38.84
2019-02-23T11:54:36.371Z,38.95
2019-02-23T11:55:36.294Z,39.23
2019-02-23T11:56:36.292Z,39.13
2019-02-23T11:57:36.366Z,41.05
2019-02-23T11:58:36.310Z,38.82
2019-02-23T11:59:36.250Z,41.22
2019-02-23T12:00:36.441Z,41.39
2019-02-23T12:01:36.398Z,37.96
2019-02-23T12:02:36.232Z,39.11
2019-02-23T12:03:36.206Z,41.35
2019-02-23T12:04:36.197Z,40.74
2019-02-23T12:05:36.187Z,39.43
2019-02-23T12:06:36.246Z,39.13
2019-02-23T12:07:36.193Z,40.05
2019-02-23T12:08:36.157Z,38.86
2019-02-23T12:09:36.152Z,39.89
2019-02-23T12:10:36.133Z,38.66
2019-02-23T12:11:36.173Z,37.84
2019-02-23T12:12:36.195Z,38.84
2019-02-23T12:13:36.105Z,37.13
2019-02-23T12:14:36.300Z,37.41
2019-02-23T12:15:36.131Z,39.01
2019-02-23T12:16:36.071Z,36.79
2019-02-23T12:17:36.229Z,35.60
2019-02-23T12:18:36.058Z,35.38
2019-02-23T12:19:36.063Z,34.97
2019-02-23T12:20:36.192Z,36.19
2019-02-23T12:21:36.039Z,36.19
2019-02-23T12:22:36.041Z,35.80
2019-02-23T12:23:35.997Z,39.13
2019-02-23T12:24:35.987Z,40.23
2019-02-23T12:25:36.220Z,41.13
2019-02-23T12:26:35.964Z,38.48
2019-02-23T12:27:36.248Z,42.21
2019-02-23T12:28:36.368Z,40.72
2019-02-23T12:29:36.081Z,40.40
2019-02-23T12:30:35.927Z,39.90
2019-02-23T12:31:35.916Z,38.60
2019-02-23T12:32:36.016Z,37.38
2019-02-23T12:33:35.915Z,32.15
2019-02-23T12:34:36.050Z,31.65
2019-02-23T12:35:35.872Z,33.38
2019-02-23T12:36:35.861Z,33.47
2019-02-23T12:37:36.527Z,34.76
2019-02-23T12:38:35.873Z,30.80
2019-02-23T12:39:35.909Z,30.97
2019-02-23T12:40:35.945Z,27.47
2019-02-23T12:41:35.970Z,30.10
2019-02-23T12:42:35.958Z,28.17
2019-02-23T12:43:35.804Z,26.57
2019-02-23T12:44:35.786Z,28.31
2019-02-23T12:45:35.762Z,31.10
2019-02-23T12:46:35.751Z,28.37
2019-02-23T12:47:35.817Z,27.36
2019-02-23T12:48:35.834Z,26.86
2019-02-23T12:49:35.753Z,25.57
2019-02-23T12:50:35.717Z,25.67
2019-02-23T12:51:35.696Z,26.75
2019-02-23T12:52:35.686Z,27.26